createdAt,value
2018-02-19T00:03:37.991Z,-0.20
2018-02-19T00:06:05.566Z,-0.40
2018-02-19T00:08:33.109Z,-0.20
2018-02-19T00:11:01.395Z,-0.10
2018-02-19T00:13:29.087Z,-0.20
2018-02-19T00:15:56.613Z,-0.30
2018-02-19T00:18:24.140Z,-0.20
2018-02-19T00:20:51.712Z,-0.30
2018-02-19T00:23:20.005Z,-0.40
2018-02-19T00:25:47.762Z,-0.40
2018-02-19T00:28:15.311Z,-0.40
2018-02-19T00:30:43.843Z,-0.40
2018-02-19T00:33:11.370Z,-0.40
2018-02-19T00:35:39.067Z,-0.30
2018-02-19T00:38:06.598Z,-0.40
2018-02-19T00:40:34.885Z,-0.40
2018-02-19T00:43:02.437Z,-0.40
2018-02-19T00:45:30.315Z,-0.40
2018-02-19T00:47:57.857Z,-0.40
2018-02-19T00:50:26.195Z,-0.50
2018-02-19T00:52:53.732Z,-0.50
2018-02-19T00:55:21.259Z,-0.60
2018-02-19T00:57:48.848Z,-0.50
2018-02-19T01:00:16.374Z,-0.50
2018-02-19T01:02:44.133Z,-0.50
2018-02-19T01:05:12.460Z,-0.60
2018-02-19T01:07:40.006Z,-0.70
2018-02-19T01:10:07.566Z,-0.60
2018-02-19T01:12:35.121Z,-0.70
2018-02-19T01:15:02.667Z,-0.80
2018-02-19T01:17:30.214Z,-0.80
2018-02-19T01:19:58.617Z,-0.80
2018-02-19T01:22:26.158Z,-0.80
2018-02-19T01:24:53.717Z,-0.90
2018-02-19T01:27:21.410Z,-1.10
2018-02-19T01:29:48.946Z,-1.00
2018-02-19T01:32:17.236Z,-1.10
2018-02-19T01:34:44.796Z,-1.10
2018-02-19T01:37:12.330Z,-1.00
2018-02-19T01:39:40.640Z,-0.70
2018-02-19T01:42:08.510Z,-0.80
2018-02-19T01:44:36.071Z,-0.60
2018-02-19T01:47:03.801Z,-0.60
2018-02-19T01:49:31.372Z,-0.60
2018-02-19T01:51:58.915Z,-0.70
2018-02-19T01:54:26.433Z,-0.70
2018-02-19T01:56:54.043Z,-0.60
2018-02-19T01:59:22.347Z,-0.60
2018-02-19T02:01:49.901Z,-0.60
2018-02-19T02:04:17.466Z,-0.60
2018-02-19T02:06:45.000Z,-0.70
2018-02-19T02:09:13.329Z,-0.60
2018-02-19T02:11:40.889Z,-0.70
2018-02-19T02:14:08.473Z,-0.60
2018-02-19T02:16:36.007Z,-0.50
2018-02-19T02:19:03.772Z,-0.60
2018-02-19T02:21:31.306Z,-0.70
2018-02-19T02:23:58.836Z,-0.90
2018-02-19T02:26:26.397Z,-0.80
2018-02-19T02:28:53.932Z,-0.80
2018-02-19T02:31:21.470Z,-0.80
2018-02-19T02:33:49.031Z,-0.80
2018-02-19T02:36:16.770Z,-0.80
2018-02-19T02:38:44.386Z,-0.80
2018-02-19T02:41:12.918Z,-0.80
2018-02-19T02:43:40.514Z,-0.80
2018-02-19T02:46:08.058Z,-0.80
2018-02-19T02:48:35.741Z,-0.80
2018-02-19T02:51:03.352Z,-0.90
2018-02-19T02:53:31.245Z,-0.80
2018-02-19T02:55:59.146Z,-0.90
2018-02-19T02:58:27.107Z,-0.80
2018-02-19T03:00:55.521Z,-0.80
2018-02-19T03:03:23.959Z,-0.80
2018-02-19T03:05:51.869Z,-0.80
2018-02-19T03:08:20.357Z,-0.80
2018-02-19T03:10:48.962Z,-0.90
2018-02-19T03:13:16.566Z,-0.90
2018-02-19T03:15:44.481Z,-0.90
2018-02-19T03:18:12.964Z,-0.90
2018-02-19T03:20:41.589Z,-1.00
2018-02-19T03:23:10.081Z,-1.00
2018-02-19T03:25:38.414Z,-1.10
2018-02-19T03:28:06.818Z,-1.10
2018-02-19T03:30:34.822Z,-1.10
2018-02-19T03:33:02.752Z,-1.20
2018-02-19T03:35:30.291Z,-1.20
2018-02-19T03:37:57.824Z,-1.30
2018-02-19T03:40:25.381Z,-1.40
2018-02-19T03:42:52.906Z,-1.50
2018-02-19T03:45:20.416Z,-1.50
2018-02-19T03:47:47.973Z,-1.50
2018-02-19T03:50:15.942Z,-1.40
2018-02-19T03:52:43.456Z,-1.40
2018-02-19T03:55:11.117Z,-1.50
2018-02-19T03:57:38.636Z,-1.40
2018-02-19T04:00:06.928Z,-1.40
2018-02-19T04:02:34.496Z,-1.40
2018-02-19T04:05:02.079Z,-1.40
2018-02-19T04:07:29.581Z,-1.40
2018-02-19T04:09:57.139Z,-1.40
2018-02-19T04:12:24.665Z,-1.40
2018-02-19T04:14:52.196Z,-1.40
2018-02-19T04:17:19.748Z,-1.40
2018-02-19T04:19:47.298Z,-1.40
2018-02-19T04:22:15.590Z,-1.50
2018-02-19T04:24:43.145Z,-1.50
2018-02-19T04:27:10.683Z,-1.50
2018-02-19T04:29:38.214Z,-1.50
2018-02-19T04:32:06.059Z,-1.50
2018-02-19T04:34:33.671Z,-1.70
2018-02-19T04:37:01.189Z,-1.80
2018-02-19T04:39:28.729Z,-1.80
2018-02-19T04:41:56.244Z,-1.90
2018-02-19T04:44:35.790Z,-2.00
2018-02-19T04:47:05.158Z,-2.00
2018-02-19T04:49:32.682Z,-1.90
2018-02-19T04:52:00.453Z,-1.90
2018-02-19T04:54:27.986Z,-1.90
2018-02-19T04:56:56.278Z,-1.90
2018-02-19T04:59:23.827Z,-1.90
2018-02-19T05:01:52.127Z,-2.00
2018-02-19T05:04:19.648Z,-2.00
2018-02-19T05:06:47.426Z,-1.90
2018-02-19T05:09:14.948Z,-1.90
2018-02-19T05:11:42.486Z,-2.10
2018-02-19T05:14:10.038Z,-2.20
2018-02-19T05:16:37.658Z,-2.20
2018-02-19T05:19:05.186Z,-2.10
2018-02-19T05:21:32.733Z,-2.20
2018-02-19T05:24:00.272Z,-2.20
2018-02-19T05:26:27.952Z,-2.20
2018-02-19T05:28:55.519Z,-2.20
2018-02-19T05:31:23.232Z,-2.20
2018-02-19T05:33:51.538Z,-2.40
2018-02-19T05:36:19.150Z,-2.40
2018-02-19T05:38:47.538Z,-2.40
2018-02-19T05:41:15.093Z,-2.40
2018-02-19T05:43:42.658Z,-2.50
2018-02-19T05:46:10.190Z,-2.40
2018-02-19T05:48:37.836Z,-2.30
2018-02-19T05:51:05.389Z,-2.30
2018-02-19T05:53:33.214Z,-2.40
2018-02-19T05:56:00.754Z,-2.40
2018-02-19T05:58:28.297Z,-2.40
2018-02-19T06:00:55.809Z,-2.50
2018-02-19T06:03:23.338Z,-2.50
2018-02-19T06:05:51.042Z,-2.50
2018-02-19T06:08:18.560Z,-2.40
2018-02-19T06:10:46.094Z,-2.30
2018-02-19T06:13:13.923Z,-2.30
2018-02-19T06:15:41.473Z,-2.50
2018-02-19T06:18:09.766Z,-2.50
2018-02-19T06:20:37.777Z,-2.50
2018-02-19T06:23:06.435Z,-2.50
2018-02-19T06:25:34.771Z,-2.40
2018-02-19T06:28:02.394Z,-2.40
2018-02-19T06:30:29.925Z,-2.40
2018-02-19T06:32:57.501Z,-2.30
2018-02-19T06:35:25.059Z,-2.30
2018-02-19T06:37:52.575Z,-2.40
2018-02-19T06:40:20.190Z,-2.30
2018-02-19T06:42:47.758Z,-2.30
2018-02-19T06:45:15.573Z,-2.30
2018-02-19T06:47:43.102Z,-2.30
2018-02-19T06:50:10.674Z,-2.30
2018-02-19T06:52:38.198Z,-2.30
2018-02-19T06:55:06.065Z,-2.30
2018-02-19T06:57:33.794Z,-2.20
2018-02-19T07:00:01.336Z,-2.10
2018-02-19T07:02:28.859Z,-2.00
2018-02-19T07:04:56.408Z,-2.00
2018-02-19T07:07:23.930Z,-2.00
2018-02-19T07:09:51.579Z,-2.00
2018-02-19T07:12:19.137Z,-1.90
2018-02-19T07:14:46.685Z,-2.00
2018-02-19T07:17:14.202Z,-2.00
2018-02-19T07:19:41.754Z,-1.90
2018-02-19T07:22:09.301Z,-1.90
2018-02-19T07:24:37.605Z,-1.90
2018-02-19T07:27:05.153Z,-1.90
2018-02-19T07:29:32.789Z,-1.80
2018-02-19T07:32:00.353Z,-1.80
2018-02-19T07:34:28.794Z,-1.80
2018-02-19T07:36:56.350Z,-1.80
2018-02-19T07:39:23.905Z,-1.80
2018-02-19T07:41:51.451Z,-1.60
2018-02-19T07:44:19.007Z,-1.60
2018-02-19T07:46:46.535Z,-1.40
2018-02-19T07:49:14.855Z,-1.20
2018-02-19T07:51:42.388Z,-1.30
2018-02-19T07:54:09.944Z,-1.20
2018-02-19T07:56:38.565Z,-1.10
2018-02-19T07:59:06.270Z,-0.90
2018-02-19T08:01:34.599Z,-0.60
2018-02-19T08:04:02.170Z,-0.60
2018-02-19T08:06:30.200Z,-0.60
2018-02-19T08:08:57.740Z,-0.30
2018-02-19T08:11:26.140Z,0.00
2018-02-19T08:13:53.669Z,0.00
2018-02-19T08:16:21.192Z,0.20
2018-02-19T08:18:48.730Z,0.50
2018-02-19T08:21:16.254Z,0.70
2018-02-19T08:23:43.784Z,0.90
2018-02-19T08:26:12.462Z,1.20
2018-02-19T08:28:40.055Z,1.20
2018-02-19T08:31:07.583Z,1.30
2018-02-19T08:33:35.166Z,1.40
2018-02-19T08:36:03.856Z,1.80
2018-02-19T08:38:31.370Z,1.70
2018-02-19T08:40:58.927Z,1.80
2018-02-19T08:43:26.462Z,1.90
2018-02-19T08:45:54.737Z,2.10
2018-02-19T08:48:23.041Z,2.10
2018-02-19T08:50:50.560Z,2.10
2018-02-19T08:53:18.088Z,2.30
2018-02-19T08:55:45.727Z,2.40
2018-02-19T08:58:14.482Z,2.30
2018-02-19T09:00:42.765Z,2.30
2018-02-19T09:03:11.074Z,2.30
2018-02-19T09:05:38.594Z,2.30
2018-02-19T09:08:06.126Z,2.40
2018-02-19T09:10:33.684Z,2.40
2018-02-19T09:13:01.365Z,2.30
2018-02-19T09:15:28.879Z,2.30
2018-02-19T09:17:57.562Z,2.40
2018-02-19T09:20:25.083Z,2.40
2018-02-19T09:22:53.379Z,2.50
2018-02-19T09:25:20.966Z,2.50
2018-02-19T09:27:48.494Z,2.60
2018-02-19T09:30:16.786Z,2.30
2018-02-19T09:32:44.337Z,2.30
2018-02-19T09:35:11.882Z,2.30
2018-02-19T09:37:40.459Z,2.40
2018-02-19T09:40:08.775Z,2.30
2018-02-19T09:42:36.295Z,2.30
2018-02-19T09:45:03.815Z,2.40
2018-02-19T09:47:31.365Z,2.60
2018-02-19T09:49:58.881Z,2.60
2018-02-19T09:52:27.166Z,2.60
2018-02-19T09:54:55.469Z,2.70
2018-02-19T09:57:23.199Z,2.70
2018-02-19T09:59:50.652Z,2.60
2018-02-19T10:02:18.192Z,2.60
2018-02-19T10:04:45.708Z,2.70
2018-02-19T10:07:13.233Z,2.80
2018-02-19T10:09:41.160Z,2.70
2018-02-19T10:12:08.719Z,2.30
2018-02-19T10:14:36.229Z,2.40
2018-02-19T10:17:03.775Z,2.50
2018-02-19T10:19:31.289Z,2.60
2018-02-19T10:21:58.811Z,2.70
2018-02-19T10:24:26.352Z,2.60
2018-02-19T10:26:54.127Z,2.60
2018-02-19T10:29:21.645Z,2.60
2018-02-19T10:31:49.190Z,2.70
2018-02-19T10:34:16.705Z,2.70
2018-02-19T10:36:44.244Z,2.70
2018-02-19T10:39:11.811Z,2.70
2018-02-19T10:41:39.341Z,2.70
2018-02-19T10:44:13.198Z,2.70
2018-02-19T10:46:41.509Z,2.90
2018-02-19T10:49:09.026Z,2.90
2018-02-19T10:51:37.309Z,3.10
2018-02-19T10:54:04.838Z,3.40
2018-02-19T10:56:32.354Z,3.40
2018-02-19T10:59:00.017Z,3.50
2018-02-19T11:01:27.755Z,3.40
2018-02-19T11:03:55.269Z,3.40
2018-02-19T11:06:22.893Z,3.50
2018-02-19T11:08:50.421Z,3.60
2018-02-19T11:11:17.944Z,3.70
2018-02-19T11:13:45.478Z,3.60
2018-02-19T11:16:12.991Z,3.60
2018-02-19T11:18:40.501Z,3.40
2018-02-19T11:21:08.046Z,3.30
2018-02-19T11:23:35.563Z,3.40
2018-02-19T11:26:03.096Z,3.50
2018-02-19T11:28:30.634Z,3.50
2018-02-19T11:30:58.163Z,3.60
2018-02-19T11:33:25.692Z,3.60
2018-02-19T11:35:53.255Z,3.70
2018-02-19T11:38:20.778Z,3.80
2018-02-19T11:40:48.507Z,3.80
2018-02-19T11:43:16.101Z,3.80
2018-02-19T11:45:43.647Z,3.80
2018-02-19T11:48:11.970Z,4.00
2018-02-19T11:50:39.523Z,4.00
2018-02-19T11:53:07.182Z,3.90
2018-02-19T11:55:34.706Z,3.90
2018-02-19T11:58:02.256Z,4.00
2018-02-19T12:00:30.579Z,4.10
2018-02-19T12:02:58.697Z,4.10
2018-02-19T12:05:26.234Z,4.20
2018-02-19T12:07:53.746Z,4.20
2018-02-19T12:10:21.279Z,4.20
2018-02-19T12:12:50.254Z,4.30
2018-02-19T12:15:18.321Z,4.20
2018-02-19T12:17:45.861Z,4.30
2018-02-19T12:20:13.561Z,4.30
2018-02-19T12:22:41.102Z,4.30
2018-02-19T12:25:09.003Z,4.10
2018-02-19T12:27:36.568Z,4.00
2018-02-19T12:30:05.138Z,4.30
2018-02-19T12:32:32.655Z,4.30
2018-02-19T12:35:00.221Z,4.40
2018-02-19T12:37:27.793Z,4.50
2018-02-19T12:39:55.322Z,4.50
2018-02-19T12:42:22.878Z,4.70
2018-02-19T12:44:50.396Z,4.60
2018-02-19T12:47:18.013Z,4.70
2018-02-19T12:49:45.711Z,4.70
2018-02-19T12:52:13.224Z,4.70
2018-02-19T12:54:40.955Z,4.60
2018-02-19T12:57:08.505Z,4.50
2018-02-19T12:59:36.023Z,4.60
2018-02-19T13:02:03.709Z,4.60
2018-02-19T13:04:31.533Z,4.60
2018-02-19T13:06:59.057Z,4.50
2018-02-19T13:09:26.620Z,4.60
2018-02-19T13:11:54.938Z,4.60
2018-02-19T13:14:22.460Z,4.50
2018-02-19T13:16:49.965Z,4.60
2018-02-19T13:19:17.703Z,4.50
2018-02-19T13:21:46.143Z,4.40
2018-02-19T13:24:13.907Z,4.40
2018-02-19T13:26:41.472Z,4.40
2018-02-19T13:29:08.981Z,4.40
2018-02-19T13:31:36.699Z,4.40
2018-02-19T13:34:04.251Z,4.40
2018-02-19T13:36:31.780Z,4.40
2018-02-19T13:38:59.290Z,4.50
2018-02-19T13:41:26.849Z,4.40
2018-02-19T13:43:54.526Z,4.40
2018-02-19T13:46:22.809Z,4.30
2018-02-19T13:48:50.362Z,4.30
2018-02-19T13:51:18.653Z,4.30
2018-02-19T13:53:46.254Z,4.30
2018-02-19T13:56:13.793Z,4.40
2018-02-19T13:58:41.339Z,4.20
2018-02-19T14:01:08.951Z,4.10
2018-02-19T14:03:36.510Z,4.10
2018-02-19T14:06:04.413Z,4.20
2018-02-19T14:08:31.986Z,4.20
2018-02-19T14:10:59.517Z,4.20
2018-02-19T14:13:27.138Z,4.20
2018-02-19T14:15:54.695Z,4.30
2018-02-19T14:18:22.258Z,4.40
2018-02-19T14:20:51.503Z,4.40
2018-02-19T14:23:19.023Z,4.30
2018-02-19T14:25:46.586Z,4.40
2018-02-19T14:28:14.158Z,4.40
2018-02-19T14:30:41.729Z,4.50
2018-02-19T14:33:09.303Z,4.50
2018-02-19T14:35:36.815Z,4.50
2018-02-19T14:38:04.357Z,4.40
2018-02-19T14:40:31.910Z,4.30
2018-02-19T14:43:00.354Z,4.30
2018-02-19T14:45:27.891Z,4.20
2018-02-19T14:47:55.453Z,4.20
2018-02-19T14:50:23.015Z,4.20
2018-02-19T14:52:50.539Z,4.10
2018-02-19T14:55:18.093Z,4.20
2018-02-19T14:57:45.837Z,4.10
2018-02-19T15:00:14.127Z,4.20
2018-02-19T15:02:41.689Z,4.20
2018-02-19T15:05:10.386Z,4.10
2018-02-19T15:07:38.003Z,4.10
2018-02-19T15:12:35.214Z,3.80
2018-02-19T15:15:02.731Z,3.80
2018-02-19T15:17:30.276Z,3.70
2018-02-19T15:19:57.798Z,3.70
2018-02-19T15:22:25.317Z,3.60
2018-02-19T15:24:53.020Z,3.50
2018-02-19T15:27:20.550Z,3.20
2018-02-19T15:29:48.848Z,3.20
2018-02-19T15:32:16.402Z,3.20
2018-02-19T15:34:43.997Z,3.20
2018-02-19T15:37:11.550Z,3.10
2018-02-19T15:39:39.108Z,2.90
2018-02-19T15:42:06.681Z,2.80
2018-02-19T15:44:34.200Z,2.90
2018-02-19T15:47:03.642Z,2.70
2018-02-19T15:49:31.160Z,2.70
2018-02-19T15:51:59.449Z,2.40
2018-02-19T15:54:27.002Z,2.40
2018-02-19T15:56:54.521Z,2.50
2018-02-19T15:59:22.047Z,2.50
2018-02-19T16:01:49.639Z,2.40
2018-02-19T16:04:17.181Z,2.30
2018-02-19T16:06:44.705Z,2.30
2018-02-19T16:09:12.584Z,2.30
2018-02-19T16:11:40.116Z,2.20
2018-02-19T16:14:08.407Z,2.10
2018-02-19T16:16:37.106Z,2.00
2018-02-19T16:19:05.068Z,2.00
2018-02-19T16:21:32.622Z,2.00
2018-02-19T16:24:01.435Z,2.00
2018-02-19T16:26:28.964Z,2.00
2018-02-19T16:28:57.583Z,1.80
2018-02-19T16:31:25.243Z,1.80
2018-02-19T16:33:52.864Z,1.70
2018-02-19T16:36:20.392Z,1.70
2018-02-19T16:38:48.253Z,1.50
2018-02-19T16:41:15.779Z,1.50
2018-02-19T16:43:44.317Z,1.50
2018-02-19T16:46:11.977Z,1.50
2018-02-19T16:48:39.547Z,1.50
2018-02-19T16:51:08.277Z,1.20
2018-02-19T16:53:37.029Z,1.40
2018-02-19T16:56:04.770Z,1.10
2018-02-19T16:58:32.490Z,1.00
2018-02-19T17:01:00.253Z,1.10
2018-02-19T17:03:27.839Z,1.00
2018-02-19T17:05:55.618Z,1.20
2018-02-19T17:08:23.467Z,1.00
2018-02-19T17:10:51.426Z,1.00
2018-02-19T17:13:19.237Z,1.10
2018-02-19T17:15:46.964Z,1.10
2018-02-19T17:30:39.569Z,0.90
